Time;durP1;ratioP1;P1;durP2;ratioP2;P2;SDS_P1;SDS_P2;PMS_P1;PMS_P2;Temp;Humidity;BMP_temperature;BMP_pressure;BME280_temperature;BME280_humidity;BME280_pressure;Samples;Min_cycle;Max_cycle;Signal;HPM_P1;HPM_P2
2023/09/16 00:01:34;;;;;;;14.32;10.20;;;;;;;18.96;81.62;99682.66;6111424;23;19985;-93
2023/09/16 00:04:00;;;;;;;10.48;9.38;;;;;;;18.91;81.46;99682.81;6110915;23;20072;-93
2023/09/16 00:06:25;;;;;;;15.98;10.73;;;;;;;18.92;81.49;99675.41;6087958;23;19998;-93
2023/09/16 00:08:51;;;;;;;14.00;9.82;;;;;;;18.91;81.93;99680.09;6086354;23;20425;-93
2023/09/16 00:11:16;;;;;;;14.75;9.52;;;;;;;18.90;81.90;99686.66;6086664;23;20068;-92
2023/09/16 00:13:43;;;;;;;12.93;9.82;;;;;;;18.84;82.09;99693.38;6111894;23;20001;-93
2023/09/16 00:16:09;;;;;;;14.70;10.65;;;;;;;18.63;83.25;99693.09;6087941;23;19993;-92
2023/09/16 00:18:35;;;;;;;14.88;11.40;;;;;;;18.55;83.36;99702.03;6111498;23;20001;-93
2023/09/16 00:21:00;;;;;;;17.52;10.13;;;;;;;18.52;83.03;99699.94;6111762;23;20001;-93
2023/09/16 00:23:25;;;;;;;11.80;10.57;;;;;;;18.59;82.91;99716.66;6109609;23;20012;-93
2023/09/16 00:25:52;;;;;;;13.13;9.88;;;;;;;18.54;82.56;99703.16;6087642;23;20068;-93
2023/09/16 00:28:17;;;;;;;11.63;10.38;;;;;;;18.55;82.12;99711.03;6086255;23;20076;-93
2023/09/16 00:30:45;;;;;;;12.65;9.88;;;;;;;18.61;82.06;99711.69;6089344;23;20365;-93
2023/09/16 00:33:12;;;;;;;13.30;10.20;;;;;;;18.46;82.27;99695.75;6112096;23;19981;-93
2023/09/16 00:35:39;;;;;;;13.18;10.10;;;;;;;18.59;82.32;99716.66;6110231;23;19998;-93
2023/09/16 00:38:04;;;;;;;13.25;10.25;;;;;;;18.55;82.21;99711.03;6134818;23;19998;-94
2023/09/16 00:40:30;;;;;;;13.40;8.88;;;;;;;18.65;82.13;99709.94;6111628;23;20001;-93
2023/09/16 00:42:56;;;;;;;10.30;9.18;;;;;;;18.70;80.81;99723.47;6110829;23;20009;-93
2023/09/16 00:45:59;;;;;;;11.70;9.48;;;;;;;18.67;81.71;99737.72;6135589;23;20091;-93
2023/09/16 00:48:25;;;;;;;11.75;9.20;;;;;;;18.47;82.17;99722.72;6137040;23;20005;-92
2023/09/16 00:50:52;;;;;;;12.10;9.05;;;;;;;18.60;81.02;99737.38;6112897;23;20017;-93
2023/09/16 00:53:17;;;;;;;10.82;8.73;;;;;;;18.65;80.34;99739.94;6112850;23;20002;-94
2023/09/16 00:55:44;;;;;;;12.57;8.88;;;;;;;18.54;81.13;99733.16;6113873;23;19978;-93
2023/09/16 00:58:11;;;;;;;14.50;9.18;;;;;;;18.53;81.19;99739.72;6113027;23;20349;-92
2023/09/16 01:00:36;;;;;;;12.55;9.48;;;;;;;18.51;81.57;99734.59;6114748;23;20001;-93
2023/09/16 01:03:04;;;;;;;13.35;8.63;;;;;;;18.45;81.45;99737.75;6112761;23;20172;-93
2023/09/16 01:05:30;;;;;;;14.98;8.68;;;;;;;18.51;81.65;99742.78;6114194;23;20005;-93
2023/09/16 01:07:56;;;;;;;10.60;9.13;;;;;;;18.49;82.01;99745.03;6137263;23;20097;-93
2023/09/16 01:10:22;;;;;;;17.30;8.63;;;;;;;18.50;81.66;99748.53;6112806;23;20013;-93
2023/09/16 01:12:48;;;;;;;12.30;8.20;;;;;;;18.52;81.35;99738.94;6112563;23;20333;-94
2023/09/16 01:15:16;;;;;;;13.50;8.50;;;;;;;18.54;80.86;99742.16;6113893;23;19998;-93
2023/09/16 01:17:43;;;;;;;12.57;8.43;;;;;;;18.61;80.90;99751.81;6113253;23;19997;-93
2023/09/16 01:20:13;;;;;;;10.30;7.95;;;;;;;18.61;80.68;99755.34;6137482;23;20009;-93
2023/09/16 01:22:44;;;;;;;8.77;7.47;;;;;;;18.53;80.11;99754.19;6114513;23;20078;-91
2023/09/16 01:25:10;;;;;;;12.07;7.97;;;;;;;18.57;80.21;99763.34;6135173;23;20006;-93
2023/09/16 01:27:37;;;;;;;11.70;8.75;;;;;;;18.62;79.38;99756.97;6138565;23;20398;-93
2023/09/16 01:30:05;;;;;;;14.00;8.10;;;;;;;18.56;79.28;99761.72;6113325;23;19998;-92
2023/09/16 01:32:41;;;;;;;11.38;7.93;;;;;;;18.57;79.19;99765.25;6090147;23;20037;-93
2023/09/16 01:35:07;;;;;;;11.75;8.10;;;;;;;18.49;79.17;99761.38;6089584;23;20063;-93
2023/09/16 01:37:33;;;;;;;12.30;7.40;;;;;;;18.42;79.23;99747.38;6112217;23;20008;-93
2023/09/16 01:40:07;;;;;;;12.75;8.10;;;;;;;18.61;78.64;99765.44;6111780;23;20076;-92
2023/09/16 01:42:33;;;;;;;11.35;7.43;;;;;;;18.54;78.29;99755.78;6090807;23;20005;-93
2023/09/16 01:44:58;;;;;;;8.52;6.70;;;;;;;18.51;78.47;99759.16;6088458;23;20005;-92
2023/09/16 01:47:24;;;;;;;13.15;7.43;;;;;;;18.47;78.94;99760.88;6087149;23;20313;-93
2023/09/16 01:49:49;;;;;;;9.18;7.07;;;;;;;18.48;78.97;99761.69;6112968;23;19986;-93
2023/09/16 01:52:18;;;;;;;9.75;7.45;;;;;;;18.41;79.20;99764.03;6087380;23;20007;-93
2023/09/16 01:54:43;;;;;;;9.73;7.60;;;;;;;18.46;78.60;99759.25;6114116;23;19998;-93
2023/09/16 01:57:09;;;;;;;8.50;7.60;;;;;;;18.42;78.39;99771.09;6087546;23;20001;-93
2023/09/16 01:59:34;;;;;;;11.25;7.22;;;;;;;18.46;78.21;99772.91;6109615;23;20009;-93
2023/09/16 02:02:00;;;;;;;8.57;7.13;;;;;;;18.41;78.93;99764.03;6088108;23;20439;-93
2023/09/16 02:04:25;;;;;;;8.40;6.97;;;;;;;18.32;78.70;99759.34;6111180;23;20013;-94
2023/09/16 02:06:51;;;;;;;11.93;7.03;;;;;;;18.36;78.07;99759.50;6112244;23;20356;-93
2023/09/16 02:09:16;;;;;;;10.10;7.47;;;;;;;18.35;78.55;99768.81;6087879;23;20001;-93
2023/09/16 02:11:42;;;;;;;10.70;7.97;;;;;;;18.24;79.41;99754.66;6088121;23;20008;-93
2023/09/16 02:14:15;;;;;;;11.18;8.13;;;;;;;18.21;79.66;99749.81;6087700;23;20352;-94
2023/09/16 02:16:40;;;;;;;10.27;7.20;;;;;;;18.17;79.46;99749.59;6088412;23;20008;-93
2023/09/16 02:19:06;;;;;;;9.57;8.05;;;;;;;18.20;79.10;99752.81;6112189;23;20009;-93
2023/09/16 02:21:32;;;;;;;8.77;7.25;;;;;;;18.27;78.88;99754.00;6113935;23;19987;-94
2023/09/16 02:24:00;;;;;;;11.88;8.18;;;;;;;18.15;79.17;99767.38;6087919;23;20001;-93
2023/09/16 02:26:26;;;;;;;12.95;7.38;;;;;;;18.03;80.31;99753.50;6089212;23;20059;-93
2023/09/16 02:28:51;;;;;;;9.70;7.57;;;;;;;17.97;80.08;99744.63;6087579;23;19981;-93
2023/09/16 02:31:17;;;;;;;13.38;7.65;;;;;;;17.95;80.11;99752.31;6094102;23;20365;-94
2023/09/16 02:33:42;;;;;;;9.88;8.05;;;;;;;17.95;80.42;99763.22;6135899;23;20076;-94
2023/09/16 02:36:08;;;;;;;10.73;8.00;;;;;;;17.83;80.81;99757.53;6111751;23;20089;-93
2023/09/16 02:38:33;;;;;;;12.38;7.80;;;;;;;17.79;80.83;99760.03;6136415;23;20440;-93
2023/09/16 02:41:03;;;;;;;11.18;7.47;;;;;;;17.69;80.70;99743.91;6137456;23;20061;-94
2023/09/16 02:43:29;;;;;;;10.40;7.93;;;;;;;17.78;80.74;99756.50;6112371;23;20459;-94
2023/09/16 02:45:57;;;;;;;12.80;8.15;;;;;;;17.78;80.76;99759.22;6111805;23;20005;-93
2023/09/16 02:48:23;;;;;;;12.05;8.07;;;;;;;17.79;80.63;99760.03;6111308;23;20001;-94
2023/09/16 02:50:49;;;;;;;11.23;7.63;;;;;;;17.83;80.26;99766.50;6110318;23;19993;-94
2023/09/16 02:53:15;;;;;;;11.55;7.68;;;;;;;17.68;80.31;99739.56;6112145;23;20005;-93
2023/09/16 02:55:42;;;;;;;12.20;7.70;;;;;;;17.82;80.41;99767.56;6111596;23;20048;-92
2023/09/16 02:58:08;;;;;;;13.07;7.63;;;;;;;17.83;81.24;99771.16;6134887;23;20007;-91
2023/09/16 03:00:34;;;;;;;9.20;7.95;;;;;;;17.82;80.67;99772.22;6136394;23;20005;-92
2023/09/16 03:02:59;;;;;;;9.35;7.72;;;;;;;17.74;80.50;99757.41;6112028;23;20471;-93
2023/09/16 03:05:25;;;;;;;7.80;7.00;;;;;;;17.62;80.49;99730.72;6111705;23;20005;-93
2023/09/16 03:07:50;;;;;;;10.43;7.63;;;;;;;17.82;79.94;99753.94;6112423;23;20005;-93
2023/09/16 03:10:16;;;;;;;14.52;7.43;;;;;;;17.71;80.22;99741.69;6109847;23;20009;-94
2023/09/16 03:12:41;;;;;;;8.45;7.22;;;;;;;17.81;79.73;99763.25;6112193;23;20001;-93
2023/09/16 03:15:08;;;;;;;9.80;7.47;;;;;;;17.74;79.80;99752.78;6111954;23;20006;-94
2023/09/16 03:17:33;;;;;;;12.93;7.47;;;;;;;17.85;80.17;99767.00;6112448;23;20006;-94
2023/09/16 03:19:58;;;;;;;14.85;7.55;;;;;;;17.63;80.05;99728.78;6109639;23;20350;-94
2023/09/16 03:22:24;;;;;;;9.35;7.43;;;;;;;17.78;79.98;99747.50;6109624;23;20068;-91
2023/09/16 03:24:50;;;;;;;13.20;7.60;;;;;;;17.70;80.16;99746.34;6111884;23;20002;-92
2023/09/16 03:27:15;;;;;;;12.23;7.90;;;;;;;17.69;80.11;99743.91;6110405;23;20348;-92
2023/09/16 03:29:41;;;;;;;12.10;7.82;;;;;;;17.61;80.29;99736.47;6110166;23;20001;-94
2023/09/16 03:32:06;;;;;;;9.68;8.02;;;;;;;17.68;80.48;99747.72;6113127;23;20049;-92
2023/09/16 03:34:32;;;;;;;10.07;8.02;;;;;;;17.74;80.45;99760.94;6111434;23;19981;-91
2023/09/16 03:36:58;;;;;;;13.30;8.18;;;;;;;17.62;80.69;99743.50;6110842;23;20006;-93
2023/09/16 03:39:23;;;;;;;12.02;8.27;;;;;;;17.63;80.44;99743.22;6111031;23;20031;-93
2023/09/16 03:41:49;;;;;;;12.77;8.38;;;;;;;17.68;81.27;99758.63;6110917;23;20333;-94
2023/09/16 03:44:15;;;;;;;10.35;7.75;;;;;;;17.54;81.10;99731.44;6111273;23;20001;-93
2023/09/16 03:46:40;;;;;;;10.88;8.45;;;;;;;17.69;80.95;99750.16;6111180;23;20005;-93
2023/09/16 03:49:08;;;;;;;10.95;7.78;;;;;;;17.65;80.73;99745.63;6110840;23;20028;-93
2023/09/16 03:51:34;;;;;;;10.63;8.10;;;;;;;17.56;80.82;99746.34;6113107;23;19997;-93
2023/09/16 03:54:00;;;;;;;12.25;8.15;;;;;;;17.61;80.83;99747.34;6110898;23;19997;-93
2023/09/16 03:56:25;;;;;;;11.85;8.35;;;;;;;17.57;80.83;99739.78;6111740;23;20013;-93
2023/09/16 03:58:51;;;;;;;10.85;8.15;;;;;;;17.65;80.69;99742.91;6111688;23;19989;-93
2023/09/16 04:01:17;;;;;;;12.35;8.10;;;;;;;17.69;80.57;99758.31;6111895;23;20006;-93
2023/09/16 04:03:42;;;;;;;12.73;8.40;;;;;;;17.77;80.53;99751.34;6111396;23;20464;-93
2023/09/16 04:06:08;;;;;;;11.57;7.57;;;;;;;17.86;80.28;99762.34;6109840;23;19997;-93
2023/09/16 04:08:34;;;;;;;12.93;7.85;;;;;;;17.82;80.32;99755.88;6136451;23;20072;-93
2023/09/16 04:10:59;;;;;;;10.90;8.13;;;;;;;17.88;80.26;99769.09;6113500;23;20006;-93
2023/09/16 04:13:26;;;;;;;13.07;8.13;;;;;;;17.92;79.99;99774.75;6111626;23;20008;-94
2023/09/16 04:15:52;;;;;;;15.88;7.50;;;;;;;17.92;80.06;99781.00;6112420;23;19998;-93
2023/09/16 04:18:18;;;;;;;12.52;8.48;;;;;;;17.94;80.00;99780.69;6111014;23;20002;-93
2023/09/16 04:20:45;;;;;;;16.15;10.32;;;;;;;17.84;79.91;99767.28;6137224;23;19986;-93
2023/09/16 04:23:11;;;;;;;12.25;10.95;;;;;;;18.02;79.97;99787.34;6113270;23;20009;-93
2023/09/16 04:25:36;;;;;;;11.60;7.93;;;;;;;18.09;78.99;99785.78;6113029;23;20361;-93
2023/09/16 04:28:03;;;;;;;12.32;7.80;;;;;;;18.03;78.75;99784.28;6114321;23;20008;-94
2023/09/16 04:30:29;;;;;;;12.65;8.13;;;;;;;18.00;79.06;99774.00;6113808;23;20491;-94
2023/09/16 04:32:54;;;;;;;11.70;8.02;;;;;;;18.13;78.92;99794.16;6088170;23;19998;-93
2023/09/16 04:35:20;;;;;;;11.68;8.50;;;;;;;17.97;79.65;99780.88;6113384;23;20000;-93
2023/09/16 04:37:46;;;;;;;13.80;8.07;;;;;;;18.12;79.62;99800.72;6088032;23;20029;-93
2023/09/16 04:40:12;;;;;;;12.30;8.65;;;;;;;18.03;79.86;99795.19;6089178;23;20012;-93
2023/09/16 04:42:38;;;;;;;9.98;8.13;;;;;;;18.01;79.92;99799.34;6137449;23;19986;-93
2023/09/16 04:45:05;;;;;;;10.63;7.32;;;;;;;18.06;79.73;99816.38;6087616;23;20036;-93
2023/09/16 04:47:30;;;;;;;9.50;7.72;;;;;;;17.94;78.77;99811.47;6089624;23;20077;-93
2023/09/16 04:49:57;;;;;;;13.25;7.70;;;;;;;17.99;78.30;99805.09;6111658;23;20001;-94
2023/09/16 04:52:25;;;;;;;13.77;9.38;;;;;;;17.94;78.84;99794.31;6088432;23;20002;-93
2023/09/16 04:54:53;;;;;;;9.27;7.03;;;;;;;18.01;78.35;99800.13;6089059;23;19997;-94
2023/09/16 04:57:18;;;;;;;11.55;7.65;;;;;;;17.98;78.06;99795.31;6089237;23;20005;-92
2023/09/16 04:59:45;;;;;;;13.00;8.02;;;;;;;18.00;78.36;99806.72;6088928;23;20021;-92
2023/09/16 05:02:11;;;;;;;16.38;7.40;;;;;;;18.02;78.03;99801.75;6114447;23;20480;-92
2023/09/16 05:04:36;;;;;;;9.70;6.72;;;;;;;18.08;77.89;99808.72;6088773;23;20049;-95
2023/09/16 05:07:04;;;;;;;9.15;6.65;;;;;;;18.13;76.80;99805.06;6088810;23;20495;-93
2023/09/16 05:09:30;;;;;;;8.38;6.80;;;;;;;18.29;76.71;99830.03;6087303;23;20001;-93
2023/09/16 05:11:55;;;;;;;13.85;7.40;;;;;;;18.24;76.75;99824.69;6088704;23;20067;-93
2023/09/16 05:14:21;;;;;;;14.88;7.90;;;;;;;18.24;75.83;99811.88;6112254;23;20009;-93
2023/09/16 05:16:46;;;;;;;23.38;8.70;;;;;;;18.28;76.06;99814.78;6111698;23;20001;-94
2023/09/16 05:19:12;;;;;;;11.23;7.43;;;;;;;18.38;75.68;99828.16;6112739;23;20001;-94
2023/09/16 05:21:38;;;;;;;16.42;7.65;;;;;;;18.38;76.04;99823.53;6089201;23;20005;-92
2023/09/16 05:24:05;;;;;;;8.60;7.38;;;;;;;18.62;75.68;99837.97;6111696;23;20321;-93
2023/09/16 05:26:30;;;;;;;10.07;6.95;;;;;;;18.75;75.84;99834.38;6089617;23;20002;-93
2023/09/16 05:28:56;;;;;;;11.60;6.90;;;;;;;18.89;74.34;99826.16;6087930;23;20072;-91
2023/09/16 05:31:23;;;;;;;10.98;6.68;;;;;;;19.23;73.01;99852.78;6113873;23;20024;-93
2023/09/16 05:33:49;;;;;;;9.57;6.65;;;;;;;19.32;72.58;99841.91;6089183;23;20085;-93
2023/09/16 05:36:16;;;;;;;7.70;6.15;;;;;;;19.34;73.14;99843.22;6088686;23;20008;-93
2023/09/16 05:38:41;;;;;;;9.00;6.63;;;;;;;19.54;72.17;99839.09;6089572;23;20001;-93
2023/09/16 05:41:08;;;;;;;13.25;8.93;;;;;;;19.58;71.88;99823.66;6111526;23;20020;-93
2023/09/16 05:43:34;;;;;;;17.73;9.20;;;;;;;19.67;71.07;99818.25;6111593;23;20088;-94
2023/09/16 05:46:01;;;;;;;15.05;9.77;;;;;;;19.69;70.90;99815.97;6089313;23;20025;-93
2023/09/16 05:48:27;;;;;;;14.50;9.73;;;;;;;19.92;71.07;99852.25;6087714;23;20048;-93
2023/09/16 05:50:59;;;;;;;14.73;9.23;;;;;;;19.87;72.05;99849.66;6113121;23;20005;-94
2023/09/16 05:53:26;;;;;;;18.33;9.18;;;;;;;19.94;71.56;99846.44;6114068;23;20005;-93
2023/09/16 05:55:53;;;;;;;12.98;8.80;;;;;;;19.86;70.43;99825.34;6111450;23;19997;-94
2023/09/16 05:58:19;;;;;;;11.77;7.25;;;;;;;19.88;71.48;99826.66;6114030;23;20076;-93
2023/09/16 06:00:53;;;;;;;9.70;6.65;;;;;;;19.97;72.35;99854.00;6111211;23;20001;-93
2023/09/16 06:03:18;;;;;;;11.45;7.03;;;;;;;19.93;72.23;99842.09;6087635;23;19985;-91
2023/09/16 06:05:44;;;;;;;8.23;6.95;;;;;;;19.89;72.35;99844.66;6087190;23;20002;-93
2023/09/16 06:08:10;;;;;;;11.55;7.05;;;;;;;20.02;71.60;99839.38;6111593;23;20001;-93
2023/09/16 06:10:36;;;;;;;13.18;8.73;;;;;;;19.99;72.18;99844.34;6088322;23;20001;-91
2023/09/16 06:13:02;;;;;;;9.05;7.70;;;;;;;19.85;72.75;99835.50;6089493;23;19989;-92
2023/09/16 06:15:27;;;;;;;11.57;10.35;;;;;;;19.96;72.02;99831.34;6136746;23;20029;-92
2023/09/16 06:17:53;;;;;;;15.15;10.32;;;;;;;20.14;71.87;99856.75;6088651;23;19997;-93
2023/09/16 06:20:18;;;;;;;12.38;10.10;;;;;;;20.16;71.95;99842.78;6112185;23;19997;-92
2023/09/16 06:22:44;;;;;;;10.90;9.75;;;;;;;20.22;71.24;99844.22;6087520;23;20001;-92
2023/09/16 06:25:09;;;;;;;10.55;8.50;;;;;;;20.37;71.13;99857.41;6137658;23;20005;-92
2023/09/16 06:27:35;;;;;;;14.73;9.75;;;;;;;20.30;70.73;99832.47;6088352;23;19986;-91
2023/09/16 06:30:01;;;;;;;21.05;10.40;;;;;;;20.31;70.65;99830.53;6089290;23;20345;-92
2023/09/16 06:32:26;;;;;;;17.60;10.50;;;;;;;20.31;70.91;99845.00;6137215;23;20088;-92
2023/09/16 06:34:52;;;;;;;12.38;9.45;;;;;;;20.51;70.83;99857.25;6137188;23;19997;-93
2023/09/16 06:37:17;;;;;;;12.02;9.55;;;;;;;20.59;70.42;99858.41;6113396;23;20348;-93
2023/09/16 06:39:45;;;;;;;13.82;11.38;;;;;;;20.67;69.99;99863.06;6085731;23;20016;-92
2023/09/16 06:42:11;;;;;;;13.20;8.13;;;;;;;20.67;69.46;99864.97;6112460;23;20061;-92
2023/09/16 06:44:36;;;;;;;10.40;7.95;;;;;;;20.83;69.01;99876.22;6087848;23;20061;-92
2023/09/16 06:47:02;;;;;;;11.98;8.75;;;;;;;20.82;68.68;99869.16;6111844;23;20067;-92
2023/09/16 06:49:28;;;;;;;9.77;8.00;;;;;;;21.09;67.57;99881.66;6112496;23;20002;-93
2023/09/16 06:51:53;;;;;;;12.15;9.45;;;;;;;21.14;66.75;99859.56;6088511;23;19997;-92
2023/09/16 06:54:19;;;;;;;13.02;9.48;;;;;;;21.49;66.53;99890.41;6086808;23;20068;-93
2023/09/16 06:56:44;;;;;;;12.07;8.98;;;;;;;21.50;67.05;99883.78;6111838;23;19993;-91
2023/09/16 06:59:10;;;;;;;12.57;8.90;;;;;;;21.66;66.08;99875.81;6087318;23;20376;-92
2023/09/16 07:01:35;;;;;;;20.75;9.60;;;;;;;21.76;65.85;99880.09;6111649;23;20056;-93
2023/09/16 07:04:01;;;;;;;14.07;9.07;;;;;;;21.86;65.27;99871.50;6088743;23;20005;-93
2023/09/16 07:06:26;;;;;;;11.48;8.10;;;;;;;21.93;65.45;99881.94;6111522;23;20068;-93
2023/09/16 07:08:52;;;;;;;15.65;7.75;;;;;;;22.07;64.86;99892.66;6089354;23;20002;-93
2023/09/16 07:11:18;;;;;;;9.68;7.55;;;;;;;22.06;65.02;99897.38;6086589;23;20045;-92
2023/09/16 07:13:46;;;;;;;13.85;7.63;;;;;;;22.14;64.60;99888.28;6086487;23;20001;-93
2023/09/16 07:16:12;;;;;;;12.50;8.32;;;;;;;22.25;64.19;99896.13;6087287;23;19993;-93
2023/09/16 07:18:38;;;;;;;14.90;8.30;;;;;;;22.32;64.40;99902.69;6086056;23;20064;-92
2023/09/16 07:21:03;;;;;;;10.88;8.27;;;;;;;22.42;64.58;99901.47;6087993;23;20001;-93
2023/09/16 07:23:29;;;;;;;10.55;7.38;;;;;;;22.34;64.30;99900.41;6088164;23;20032;-94
2023/09/16 07:25:55;;;;;;;11.45;7.97;;;;;;;22.61;64.47;99917.47;6086892;23;20005;-93
2023/09/16 07:28:21;;;;;;;10.38;8.65;;;;;;;22.73;64.47;99924.97;6112685;23;20002;-93
2023/09/16 07:30:47;;;;;;;11.98;9.82;;;;;;;22.82;63.20;99902.91;6111922;23;20055;-92
2023/09/16 07:33:12;;;;;;;12.85;10.18;;;;;;;22.99;62.92;99914.53;6110669;23;20324;-92
2023/09/16 07:35:40;;;;;;;16.50;11.18;;;;;;;23.13;62.32;99916.19;6113473;23;20069;-94
2023/09/16 07:38:06;;;;;;;20.63;11.55;;;;;;;23.16;62.41;99902.59;6089644;23;20002;-92
2023/09/16 07:40:32;;;;;;;15.70;8.88;;;;;;;23.45;61.05;99900.81;6136623;23;20002;-93
2023/09/16 07:42:58;;;;;;;12.02;8.57;;;;;;;23.55;61.68;99916.84;6111961;23;20006;-92
2023/09/16 07:45:24;;;;;;;15.63;8.27;;;;;;;23.56;61.54;99898.41;6087711;23;20005;-93
2023/09/16 07:47:49;;;;;;;10.13;6.90;;;;;;;23.59;61.73;99893.03;6088154;23;20009;-92
2023/09/16 07:50:15;;;;;;;9.52;6.63;;;;;;;23.67;60.83;99898.75;6086552;23;20084;-93
2023/09/16 07:52:42;;;;;;;10.18;7.63;;;;;;;23.84;60.06;99903.25;6135698;23;19997;-92
2023/09/16 07:55:07;;;;;;;8.88;6.50;;;;;;;23.89;59.80;99903.81;6112923;23;19985;-92
2023/09/16 07:57:33;;;;;;;8.35;6.18;;;;;;;23.89;60.80;99912.06;6110492;23;19997;-93
2023/09/16 08:00:00;;;;;;;11.10;6.57;;;;;;;23.97;59.67;99908.41;6112496;23;20494;-92
2023/09/16 08:02:26;;;;;;;11.65;7.32;;;;;;;23.82;61.50;99906.34;6112495;23;20336;-92
2023/09/16 08:04:54;;;;;;;12.95;7.50;;;;;;;23.93;60.43;99906.69;6113851;23;20016;-94
2023/09/16 08:07:20;;;;;;;14.77;7.38;;;;;;;24.12;59.57;99904.13;6113468;23;20002;-94
2023/09/16 08:09:45;;;;;;;11.15;7.53;;;;;;;24.06;59.54;99890.97;6110456;23;20040;-93
2023/09/16 08:12:11;;;;;;;12.85;8.40;;;;;;;24.15;60.02;99908.13;6113960;23;20006;-93
2023/09/16 08:14:36;;;;;;;11.88;8.43;;;;;;;24.10;59.42;99894.63;6088251;23;20001;-92
2023/09/16 08:17:24;;;;;;;11.65;8.05;;;;;;;24.37;58.87;99926.09;6088328;23;19989;-91
2023/09/16 08:19:49;;;;;;;11.77;8.55;;;;;;;24.36;58.91;99908.78;6114820;23;19997;-92
2023/09/16 08:22:16;;;;;;;13.05;8.80;;;;;;;24.36;58.64;99894.22;6114321;23;20033;-93
2023/09/16 08:24:42;;;;;;;14.80;9.32;;;;;;;24.59;58.78;99917.34;6088882;23;19997;-92
2023/09/16 08:27:07;;;;;;;10.55;8.45;;;;;;;24.61;58.28;99905.97;6089513;23;20046;-93
2023/09/16 08:29:33;;;;;;;13.93;8.32;;;;;;;24.60;57.98;99887.84;6088688;23;20009;-93
2023/09/16 08:31:59;;;;;;;13.80;8.57;;;;;;;24.75;58.13;99927.63;6087262;23;20013;-93
2023/09/16 08:34:24;;;;;;;19.13;10.50;;;;;;;24.68;58.17;99919.16;6114528;23;20001;-93
2023/09/16 08:36:50;;;;;;;16.73;9.43;;;;;;;24.69;57.85;99918.78;6116048;23;20013;-93
2023/09/16 08:39:15;;;;;;;13.73;9.55;;;;;;;24.60;57.89;99915.41;6091751;23;20008;-93
2023/09/16 08:41:49;;;;;;;12.95;9.30;;;;;;;24.47;58.29;99917.34;6114305;23;20041;-92
2023/09/16 08:44:15;;;;;;;12.38;9.10;;;;;;;24.47;58.22;99905.56;6090040;23;20013;-92
2023/09/16 08:46:42;;;;;;;11.38;8.40;;;;;;;24.65;58.10;99911.59;6091077;23;20079;-92
2023/09/16 08:49:08;;;;;;;12.20;8.88;;;;;;;24.85;57.72;99927.13;6093903;23;20005;-92
2023/09/16 08:51:35;;;;;;;11.93;8.55;;;;;;;24.92;57.00;99915.47;6140815;23;19997;-91
2023/09/16 08:54:01;;;;;;;14.65;8.63;;;;;;;24.76;58.02;99918.22;6090908;23;20001;-92
2023/09/16 08:56:27;;;;;;;16.65;8.75;;;;;;;24.75;57.84;99902.81;6115325;23;20487;-93
2023/09/16 08:58:53;;;;;;;8.13;7.32;;;;;;;24.92;56.72;99919.06;6115203;23;19997;-94
2023/09/16 09:01:19;;;;;;;9.73;7.45;;;;;;;24.90;56.33;99918.59;6091150;23;20062;-94
2023/09/16 09:03:46;;;;;;;9.40;7.93;;;;;;;24.92;57.04;99924.56;6114352;23;20005;-94
2023/09/16 09:06:15;;;;;;;12.73;7.35;;;;;;;25.10;56.92;99935.25;6115670;23;20001;-94
2023/09/16 09:08:40;;;;;;;10.23;7.45;;;;;;;25.08;57.52;99929.31;6094274;23;20002;-92
2023/09/16 09:11:10;;;;;;;9.40;7.32;;;;;;;25.03;57.03;99922.09;6143767;23;20369;-94
2023/09/16 09:13:35;;;;;;;8.88;7.50;;;;;;;25.06;55.93;99920.59;6096541;23;20084;-94
2023/09/16 09:16:04;;;;;;;11.38;6.82;;;;;;;25.16;55.68;99920.88;6096418;23;20014;-92
2023/09/16 09:18:33;;;;;;;9.30;6.75;;;;;;;25.12;55.44;99916.41;6099808;23;20025;-94
2023/09/16 09:21:04;;;;;;;10.85;7.43;;;;;;;25.22;55.87;99909.63;6145059;23;20011;-94
2023/09/16 09:23:31;;;;;;;10.45;7.00;;;;;;;25.43;55.18;99936.94;6118300;23;20013;-93
2023/09/16 09:25:59;;;;;;;11.52;6.70;;;;;;;25.33;54.08;99927.22;6095142;23;20005;-92
2023/09/16 09:28:27;;;;;;;8.90;6.72;;;;;;;25.27;54.43;99906.59;6117338;23;20004;-94
2023/09/16 09:30:52;;;;;;;10.98;6.70;;;;;;;25.47;53.32;99926.81;6092998;23;20076;-92
2023/09/16 09:33:24;;;;;;;7.72;6.82;;;;;;;25.51;53.06;99920.22;6093867;23;20407;-94
2023/09/16 09:35:50;;;;;;;11.18;6.78;;;;;;;25.58;52.68;99908.56;6117369;23;19996;-94
2023/09/16 09:38:17;;;;;;;10.65;7.30;;;;;;;25.82;52.72;99929.63;6113253;23;20077;-93
2023/09/16 09:40:57;;;;;;;11.27;6.15;;;;;;;25.66;52.41;99906.78;6114158;23;20429;-93
2023/09/16 09:43:23;;;;;;;7.20;6.50;;;;;;;25.93;52.72;99924.41;6111593;23;20016;-94
2023/09/16 09:45:48;;;;;;;8.63;5.82;;;;;;;26.06;52.44;99914.03;6087574;23;20140;-95
2023/09/16 09:48:16;;;;;;;9.50;6.15;;;;;;;26.08;51.83;99915.28;6087748;23;20008;-93
2023/09/16 09:50:42;;;;;;;9.32;6.60;;;;;;;26.02;51.28;99916.72;6088071;23;20008;-92
2023/09/16 09:53:08;;;;;;;8.88;6.72;;;;;;;26.05;51.35;99904.19;6088634;23;20005;-92
2023/09/16 09:55:33;;;;;;;7.55;5.97;;;;;;;26.08;52.37;99920.78;6112111;23;20064;-92
2023/09/16 09:57:59;;;;;;;11.38;6.80;;;;;;;25.95;51.74;99905.53;6086767;23;20317;-92
2023/09/16 10:00:26;;;;;;;7.65;6.47;;;;;;;26.08;52.69;99909.75;6112293;23;19997;-93
2023/09/16 10:02:51;;;;;;;11.68;6.82;;;;;;;26.14;52.03;99924.88;6114632;23;20012;-93
2023/09/16 10:05:19;;;;;;;9.15;5.80;;;;;;;26.06;51.15;99922.31;6111841;23;20092;-93
2023/09/16 10:07:45;;;;;;;9.35;7.35;;;;;;;26.04;50.76;99894.28;6137709;23;20002;-92
2023/09/16 10:10:20;;;;;;;7.90;6.20;;;;;;;26.13;50.76;99928.03;6112730;23;20012;-93
2023/09/16 10:12:46;;;;;;;9.77;5.97;;;;;;;25.88;50.80;99897.84;6090861;23;20002;-93
2023/09/16 10:15:11;;;;;;;6.78;5.97;;;;;;;26.15;50.87;99914.66;6114412;23;20004;-94
2023/09/16 10:17:37;;;;;;;13.20;6.20;;;;;;;25.93;50.35;99896.81;6089199;23;20084;-93
2023/09/16 10:20:03;;;;;;;8.18;6.15;;;;;;;25.95;49.83;99900.81;6090867;23;20061;-93
2023/09/16 10:22:29;;;;;;;9.23;5.80;;;;;;;25.91;50.64;99901.88;6092141;23;20392;-93
2023/09/16 10:25:00;;;;;;;8.60;5.93;;;;;;;25.96;51.20;99915.38;6116197;23;20009;-92
2023/09/16 10:27:27;;;;;;;8.50;6.07;;;;;;;25.88;50.36;99900.63;6119586;23;20001;-91
2023/09/16 10:29:55;;;;;;;7.43;6.10;;;;;;;25.78;51.13;99915.75;6116728;23;20001;-91
2023/09/16 10:32:20;;;;;;;8.93;6.50;;;;;;;25.73;51.15;99912.47;6134189;23;20024;-90
2023/09/16 10:34:46;;;;;;;8.95;6.00;;;;;;;25.74;50.15;99903.03;6142723;23;20002;-92
2023/09/16 10:37:18;;;;;;;7.95;6.28;;;;;;;25.72;50.78;99916.38;6142953;23;20322;-93
2023/09/16 10:39:46;;;;;;;11.20;6.07;;;;;;;25.59;50.39;99896.38;6166831;23;20029;-95
2023/09/16 10:42:20;;;;;;;9.77;6.13;;;;;;;25.74;51.30;99914.88;6144595;23;20429;-92
2023/09/16 10:44:48;;;;;;;11.38;6.85;;;;;;;25.48;51.84;99892.53;6142385;23;20005;-91
2023/09/16 10:47:17;;;;;;;9.23;6.60;;;;;;;25.52;52.04;99893.44;6167933;23;20080;-92
2023/09/16 10:49:46;;;;;;;8.27;6.32;;;;;;;25.53;52.16;99892.28;6117756;23;20008;-90
2023/09/16 10:52:15;;;;;;;8.70;6.60;;;;;;;25.55;52.06;99888.00;6164500;23;19997;-92
2023/09/16 10:55:00;;;;;;;8.02;6.40;;;;;;;25.78;52.43;99907.47;6160426;23;20064;-92
2023/09/16 10:57:36;;;;;;;8.88;6.13;;;;;;;25.81;50.89;99892.16;6133968;23;20001;-91
2023/09/16 11:00:04;;;;;;;8.60;6.28;;;;;;;25.76;51.01;99876.69;6108521;23;20084;-90
2023/09/16 11:02:35;;;;;;;7.45;6.35;;;;;;;25.73;51.09;99865.56;6135376;23;20012;-91
2023/09/16 11:05:01;;;;;;;8.48;6.13;;;;;;;25.81;51.26;99881.91;6160415;23;20380;-92
2023/09/16 11:07:26;;;;;;;9.85;6.10;;;;;;;25.79;51.16;99873.22;6110652;23;19993;-92
2023/09/16 11:09:53;;;;;;;10.93;6.47;;;;;;;25.84;50.09;99855.59;6159914;23;20001;-91
2023/09/16 11:12:18;;;;;;;10.95;6.50;;;;;;;25.98;50.54;99875.25;6158793;23;20001;-92
2023/09/16 11:14:45;;;;;;;8.25;6.05;;;;;;;25.88;50.58;99870.28;6161149;23;20024;-91
2023/09/16 11:17:14;;;;;;;11.18;6.22;;;;;;;25.87;51.15;99854.84;6135194;23;20080;-90
2023/09/16 11:19:40;;;;;;;8.65;5.90;;;;;;;25.94;49.07;99857.81;6159656;23;20005;-91
2023/09/16 11:22:05;;;;;;;10.25;5.90;;;;;;;26.07;48.91;99852.97;6132846;23;20002;-90
2023/09/16 11:24:33;;;;;;;6.75;5.47;;;;;;;26.03;48.29;99857.63;6110147;23;20001;-91